Time;durP1;ratioP1;P1;durP2;ratioP2;P2;SDS_P1;SDS_P2;PMS_P1;PMS_P2;Temp;Humidity;BMP_temperature;BMP_pressure;BME280_temperature;BME280_humidity;BME280_pressure;Samples;Min_cycle;Max_cycle;Signal;HPM_P1;HPM_P2
2023/12/30 00:02:13;;;;;;;0.30;0.20;;;;;;;10.85;98.41;99962.47;5060897;28;20954;-52
2023/12/30 00:04:39;;;;;;;0.30;0.20;;;;;;;10.96;98.19;99968.28;5052699;28;20550;-52
2023/12/30 00:07:06;;;;;;;0.30;0.20;;;;;;;11.10;98.06;99961.56;5049771;28;20941;-52
2023/12/30 00:09:32;;;;;;;0.30;0.20;;;;;;;11.12;97.73;99962.41;5042463;28;20524;-52
2023/12/30 00:11:58;;;;;;;0.30;0.20;;;;;;;11.20;97.24;99955.00;5052574;28;20450;-52
2023/12/30 00:14:25;;;;;;;0.30;0.20;;;;;;;11.04;97.04;99960.00;5041991;28;20568;-53
2023/12/30 00:16:52;;;;;;;0.30;0.20;;;;;;;11.04;96.91;99957.34;5039261;28;20987;-53
2023/12/30 00:19:19;;;;;;;0.30;0.20;;;;;;;10.95;97.41;99966.50;5052835;28;20541;-52
2023/12/30 00:21:46;;;;;;;0.30;0.20;;;;;;;11.06;97.71;99966.13;5038955;28;20465;-52
2023/12/30 00:24:12;;;;;;;0.30;0.20;;;;;;;10.92;97.24;99965.75;5052464;28;20505;-52
2023/12/30 00:26:38;;;;;;;0.30;0.20;;;;;;;11.11;96.69;99969.53;5048444;28;20953;-52
2023/12/30 00:29:05;;;;;;;0.30;0.20;;;;;;;11.07;95.74;99973.19;5043013;28;20454;-52
2023/12/30 00:31:32;;;;;;;0.30;0.20;;;;;;;10.84;95.81;99973.16;5052237;28;20541;-52
2023/12/30 00:34:00;;;;;;;0.30;0.20;;;;;;;10.81;95.75;99974.09;5041450;28;20989;-52
2023/12/30 00:36:28;;;;;;;0.30;0.20;;;;;;;10.80;95.93;99967.06;5045268;28;20499;-52
2023/12/30 00:38:54;;;;;;;0.30;0.20;;;;;;;10.92;94.84;99968.44;5043209;28;20491;-52
2023/12/30 00:41:25;;;;;;;0.30;0.20;;;;;;;10.98;95.10;99970.88;5052365;28;20458;-52
2023/12/30 00:43:51;;;;;;;0.30;0.20;;;;;;;10.75;95.65;99982.31;5038820;28;20838;-52
2023/12/30 00:46:19;;;;;;;0.30;0.20;;;;;;;10.62;95.77;99987.16;5050710;28;20542;-52
2023/12/30 00:48:46;;;;;;;0.30;0.20;;;;;;;10.87;95.74;99986.34;5051930;28;20450;-54
2023/12/30 00:51:23;;;;;;;0.30;0.20;;;;;;;10.76;95.12;99985.84;5038858;28;20454;-52
2023/12/30 00:53:49;;;;;;;0.30;0.20;;;;;;;10.93;95.51;99989.63;5051424;28;20475;-52
2023/12/30 00:56:16;;;;;;;0.30;0.20;;;;;;;10.93;94.35;99994.97;5051742;28;20551;-52
2023/12/30 00:58:42;;;;;;;0.30;0.20;;;;;;;11.02;94.64;99992.91;5042349;28;20454;-52
2023/12/30 01:01:08;;;;;;;0.30;0.20;;;;;;;11.04;94.05;99994.59;5051807;28;20533;-52
2023/12/30 01:03:35;;;;;;;0.30;0.20;;;;;;;10.95;94.65;99994.91;5051041;28;20485;-52
2023/12/30 01:06:02;;;;;;;0.30;0.20;;;;;;;10.86;94.34;99988.13;5043909;28;20447;-52
2023/12/30 01:08:28;;;;;;;0.30;0.20;;;;;;;10.70;94.57;99999.34;5046218;28;20447;-52
2023/12/30 01:10:55;;;;;;;0.30;0.20;;;;;;;10.85;94.54;100009.47;5052106;28;20462;-53
2023/12/30 01:13:21;;;;;;;0.30;0.20;;;;;;;10.69;94.92;100014.44;5040110;28;20509;-53
2023/12/30 01:15:47;;;;;;;0.30;0.20;;;;;;;10.92;94.41;100011.84;5051405;28;20552;-53
2023/12/30 01:18:14;;;;;;;0.30;0.20;;;;;;;10.87;94.52;100011.13;5049755;28;20815;-53
2023/12/30 01:20:41;;;;;;;0.30;0.20;;;;;;;11.04;94.48;100015.88;5040127;28;20844;-52
2023/12/30 01:23:07;;;;;;;0.30;0.20;;;;;;;10.80;94.22;100001.63;5050936;28;20505;-52
2023/12/30 01:25:34;;;;;;;0.30;0.20;;;;;;;11.02;94.11;100011.53;5051322;28;20457;-52
2023/12/30 01:28:00;;;;;;;0.30;0.20;;;;;;;10.80;93.89;100009.59;5038143;28;20452;-52
2023/12/30 01:30:27;;;;;;;0.30;0.20;;;;;;;10.90;94.40;100008.38;5051343;28;20833;-52
2023/12/30 01:32:53;;;;;;;0.30;0.20;;;;;;;10.89;93.91;100014.59;5048709;28;20447;-52
2023/12/30 01:35:20;;;;;;;0.30;0.20;;;;;;;10.91;93.96;100011.91;5040517;28;20501;-52
2023/12/30 01:37:46;;;;;;;0.30;0.20;;;;;;;10.97;94.18;100015.22;5050880;28;20462;-52
2023/12/30 01:40:13;;;;;;;0.30;0.20;;;;;;;10.94;93.82;100014.44;5051521;28;20450;-52
2023/12/30 01:42:40;;;;;;;0.30;0.20;;;;;;;10.93;93.91;100016.22;5038008;28;20520;-53
2023/12/30 01:45:07;;;;;;;0.30;0.20;;;;;;;10.88;94.41;100022.66;5051625;28;20825;-53
2023/12/30 01:47:37;;;;;;;0.30;0.20;;;;;;;10.79;94.36;100021.16;5048292;28;20460;-52
2023/12/30 01:50:04;;;;;;;0.30;0.20;;;;;;;10.78;94.26;100023.88;5041393;28;20457;-52
2023/12/30 01:52:35;;;;;;;0.30;0.20;;;;;;;10.75;94.44;100031.94;5050985;28;20546;-52
2023/12/30 01:55:07;;;;;;;0.30;0.20;;;;;;;10.59;95.36;100032.47;5050312;28;20474;-52
2023/12/30 01:57:34;;;;;;;0.30;0.20;;;;;;;10.71;94.86;100040.97;5046624;28;20506;-52
2023/12/30 02:00:01;;;;;;;0.30;0.20;;;;;;;10.74;94.92;100040.84;5046626;28;20533;-53
2023/12/30 02:02:28;;;;;;;0.30;0.20;;;;;;;10.68;94.82;100036.59;5050958;28;20513;-53
2023/12/30 02:04:55;;;;;;;0.30;0.20;;;;;;;10.58;95.09;100040.50;5039949;28;20501;-53
2023/12/30 02:07:21;;;;;;;0.30;0.20;;;;;;;10.65;95.39;100039.34;5037809;28;20538;-52
2023/12/30 02:09:49;;;;;;;0.30;0.20;;;;;;;10.69;94.66;100041.00;5051134;28;20458;-52
2023/12/30 02:12:15;;;;;;;0.30;0.20;;;;;;;10.36;95.17;100038.50;5045891;28;20452;-53
2023/12/30 02:14:42;;;;;;;0.30;0.20;;;;;;;10.52;95.18;100035.34;5035210;28;20641;-53
2023/12/30 02:17:08;;;;;;;0.30;0.20;;;;;;;10.45;95.22;100042.66;5049324;28;20867;-53
2023/12/30 02:19:35;;;;;;;0.30;0.20;;;;;;;10.56;94.86;100042.34;5038678;28;21096;-52
2023/12/30 02:22:02;;;;;;;0.30;0.20;;;;;;;10.70;93.71;100045.41;5049955;28;20457;-52
2023/12/30 02:24:29;;;;;;;0.30;0.20;;;;;;;10.64;93.34;100038.47;5038497;28;20472;-52
2023/12/30 02:26:55;;;;;;;0.30;0.20;;;;;;;10.55;93.50;100032.59;5050826;28;20537;-52
2023/12/30 02:29:22;;;;;;;0.30;0.20;;;;;;;10.74;93.46;100039.06;5050696;28;20912;-52
2023/12/30 02:31:48;;;;;;;0.30;0.20;;;;;;;10.73;93.39;100039.13;5037158;28;20516;-52
2023/12/30 02:34:17;;;;;;;0.30;0.20;;;;;;;10.59;93.48;100036.91;5050945;28;20474;-52
2023/12/30 02:36:45;;;;;;;0.30;0.20;;;;;;;10.69;93.22;100051.66;5050984;28;20536;-52
2023/12/30 02:39:12;;;;;;;0.30;0.20;;;;;;;10.48;93.78;100039.03;5040380;28;20452;-52
2023/12/30 02:41:38;;;;;;;0.30;0.20;;;;;;;10.44;94.25;100032.97;5054422;28;20891;-52
2023/12/30 02:44:06;;;;;;;0.30;0.20;;;;;;;10.30;94.57;100044.03;5053368;28;20599;-52
2023/12/30 02:46:32;;;;;;;0.30;0.20;;;;;;;10.29;94.82;100049.41;5050593;28;20446;-51
2023/12/30 02:49:03;;;;;;;0.30;0.20;;;;;;;10.26;94.97;100038.84;5054217;28;20481;-52
2023/12/30 02:51:30;;;;;;;0.30;0.20;;;;;;;10.31;94.22;100034.28;5053193;28;20948;-52
2023/12/30 02:53:56;;;;;;;0.30;0.20;;;;;;;10.29;94.48;100038.78;5053471;28;20836;-52
2023/12/30 02:56:25;;;;;;;0.30;0.20;;;;;;;10.13;95.11;100048.06;5054028;28;20544;-52
2023/12/30 02:59:00;;;;;;;0.30;0.20;;;;;;;10.06;95.05;100050.06;5044336;28;20529;-52
2023/12/30 03:01:29;;;;;;;0.30;0.20;;;;;;;10.03;95.74;100050.16;5058899;28;20828;-52
2023/12/30 03:03:58;;;;;;;0.30;0.20;;;;;;;9.84;96.52;100048.94;5056700;28;20471;-52
2023/12/30 03:06:26;;;;;;;0.30;0.20;;;;;;;9.88;96.39;100045.31;5053860;28;20986;-52
2023/12/30 03:08:53;;;;;;;0.30;0.20;;;;;;;9.84;96.69;100049.81;5046939;28;20482;-52
2023/12/30 03:11:20;;;;;;;0.30;0.20;;;;;;;9.85;96.58;100062.19;5053777;28;20539;-52
2023/12/30 03:13:46;;;;;;;0.30;0.20;;;;;;;9.82;96.98;100067.59;5049397;28;20475;-52
2023/12/30 03:16:16;;;;;;;0.30;0.20;;;;;;;9.86;96.76;100066.56;5044880;28;20491;-52
2023/12/30 03:18:43;;;;;;;0.30;0.20;;;;;;;9.85;96.44;100069.28;5053522;28;20478;-52
2023/12/30 03:21:13;;;;;;;0.30;0.20;;;;;;;9.76;97.33;100063.34;5043955;28;20983;-52
2023/12/30 03:23:40;;;;;;;0.30;0.20;;;;;;;9.78;97.50;100064.16;5051951;28;20471;-52
2023/12/30 03:26:08;;;;;;;0.30;0.20;;;;;;;9.74;97.58;100064.28;5041448;28;20415;-52
2023/12/30 03:28:35;;;;;;;0.30;0.20;;;;;;;9.74;97.54;100056.34;5052590;28;20446;-52
2023/12/30 03:31:01;;;;;;;0.30;0.20;;;;;;;9.69;97.77;100059.09;5053463;28;20468;-52
2023/12/30 03:33:28;;;;;;;0.30;0.20;;;;;;;9.72;97.82;100055.47;5038299;28;20471;-52
2023/12/30 03:35:55;;;;;;;0.30;0.20;;;;;;;9.63;98.33;100053.97;5053391;28;20525;-52
2023/12/30 03:38:21;;;;;;;0.30;0.20;;;;;;;9.61;98.51;100055.81;5053085;28;20459;-52
2023/12/30 03:40:48;;;;;;;0.30;0.20;;;;;;;9.62;98.32;100056.69;5053452;28;20471;-52
2023/12/30 03:43:14;;;;;;;0.30;0.20;;;;;;;9.59;98.36;100062.91;5047788;28;20467;-52
2023/12/30 03:45:41;;;;;;;0.30;0.20;;;;;;;9.91;97.90;100059.34;5045359;28;20458;-52
2023/12/30 03:48:08;;;;;;;0.30;0.20;;;;;;;9.85;98.11;100059.53;5052831;28;20423;-52
2023/12/30 03:50:36;;;;;;;0.30;0.20;;;;;;;9.92;98.24;100058.44;5039920;28;20451;-53
2023/12/30 03:53:04;;;;;;;0.30;0.20;;;;;;;10.01;97.92;100057.31;5039372;28;20536;-52
2023/12/30 03:55:31;;;;;;;0.30;0.20;;;;;;;10.24;96.91;100064.59;5052804;28;20949;-52
2023/12/30 03:57:58;;;;;;;0.30;0.20;;;;;;;10.45;96.08;100069.25;5044979;28;20452;-52
2023/12/30 04:00:24;;;;;;;0.30;0.20;;;;;;;10.50;96.72;100069.97;5051648;28;20455;-52
2023/12/30 04:02:51;;;;;;;0.30;0.20;;;;;;;10.54;96.66;100084.00;5052673;28;20986;-52
2023/12/30 04:05:17;;;;;;;0.30;0.20;;;;;;;10.59;96.69;100079.44;5039231;28;20827;-52
2023/12/30 04:07:45;;;;;;;0.30;0.20;;;;;;;10.50;97.38;100079.72;5052110;28;20450;-52
2023/12/30 04:10:13;;;;;;;0.30;0.20;;;;;;;10.26;98.62;100081.34;5052789;28;20454;-52
2023/12/30 04:12:39;;;;;;;0.30;0.20;;;;;;;10.48;99.10;100089.53;5043278;28;20452;-52
2023/12/30 04:15:07;;;;;;;0.30;0.20;;;;;;;10.50;99.74;100074.41;5048526;28;20541;-52
2023/12/30 04:17:34;;;;;;;0.30;0.20;;;;;;;10.43;99.73;100065.78;5052511;28;20491;-52
2023/12/30 04:20:00;;;;;;;0.30;0.20;;;;;;;10.52;99.94;100073.44;5047594;28;20462;-52
2023/12/30 04:22:28;;;;;;;0.30;0.20;;;;;;;10.43;100.00;100073.75;5052287;28;20447;-53
2023/12/30 04:24:56;;;;;;;0.30;0.20;;;;;;;10.53;100.00;100069.84;5039156;28;20475;-52
2023/12/30 04:27:24;;;;;;;0.30;0.20;;;;;;;10.51;100.00;100071.69;5052505;28;20449;-52
2023/12/30 04:29:50;;;;;;;0.30;0.20;;;;;;;10.73;100.00;100076.34;5048972;28;20474;-52
2023/12/30 04:32:20;;;;;;;0.30;0.20;;;;;;;10.34;100.00;100082.00;5052099;28;20542;-52
2023/12/30 04:34:48;;;;;;;0.30;0.20;;;;;;;10.48;100.00;100084.22;5038860;28;20485;-52
2023/12/30 04:37:15;;;;;;;0.30;0.20;;;;;;;10.57;100.00;100074.19;5052266;28;20499;-52
2023/12/30 04:39:42;;;;;;;0.30;0.20;;;;;;;10.24;100.00;100073.44;5051794;28;20948;-52
2023/12/30 04:42:08;;;;;;;0.30;0.20;;;;;;;10.23;100.00;100066.38;5052195;28;20985;-52
2023/12/30 04:44:35;;;;;;;0.30;0.20;;;;;;;10.10;100.00;100060.53;5046413;28;21011;-52
2023/12/30 04:47:01;;;;;;;0.30;0.20;;;;;;;10.28;100.00;100067.13;5044156;28;20947;-52
2023/12/30 04:49:28;;;;;;;0.30;0.20;;;;;;;10.32;100.00;100068.75;5051772;28;20459;-52
2023/12/30 04:51:54;;;;;;;0.30;0.20;;;;;;;10.38;100.00;100073.00;5050116;28;20784;-52
2023/12/30 04:54:21;;;;;;;0.30;0.20;;;;;;;10.31;100.00;100066.16;5051188;28;20481;-52
2023/12/30 04:56:47;;;;;;;0.30;0.20;;;;;;;10.30;100.00;100062.63;5051676;28;20530;-52
2023/12/30 04:59:14;;;;;;;0.30;0.20;;;;;;;10.19;100.00;100069.16;5044331;28;20490;-52
2023/12/30 05:01:40;;;;;;;0.30;0.20;;;;;;;10.11;100.00;100069.38;5051073;28;20494;-52
2023/12/30 05:04:06;;;;;;;0.30;0.20;;;;;;;10.10;100.00;100070.28;5046285;28;20530;-52
2023/12/30 05:06:33;;;;;;;0.30;0.20;;;;;;;10.32;100.00;100071.41;5039610;28;20505;-52
2023/12/30 05:09:00;;;;;;;0.30;0.20;;;;;;;10.17;100.00;100071.84;5050265;28;20877;-52
2023/12/30 05:11:27;;;;;;;0.30;0.20;;;;;;;10.06;100.00;100069.53;5051787;28;20802;-52
2023/12/30 05:13:54;;;;;;;0.30;0.20;;;;;;;10.07;100.00;100070.38;5038200;28;20884;-52
2023/12/30 05:16:20;;;;;;;0.30;0.20;;;;;;;10.06;100.00;100072.16;5051500;28;20491;-52
2023/12/30 05:18:47;;;;;;;0.30;0.20;;;;;;;10.07;100.00;100068.59;5048635;28;20541;-52
2023/12/30 05:21:15;;;;;;;0.30;0.20;;;;;;;10.07;100.00;100079.22;5044230;28;20446;-52
2023/12/30 05:23:42;;;;;;;0.30;0.20;;;;;;;10.13;100.00;100075.50;5045318;28;20529;-52
2023/12/30 05:26:12;;;;;;;0.30;0.20;;;;;;;10.07;100.00;100076.56;5044236;28;20447;-52
2023/12/30 05:28:39;;;;;;;0.30;0.20;;;;;;;10.06;100.00;100085.44;5038449;28;20474;-52
2023/12/30 05:31:05;;;;;;;0.30;0.20;;;;;;;10.14;100.00;100090.50;5037971;28;20945;-52
2023/12/30 05:33:32;;;;;;;0.30;0.20;;;;;;;10.21;100.00;100091.22;5050032;28;20520;-51
2023/12/30 05:35:59;;;;;;;0.30;0.20;;;;;;;10.19;100.00;100085.97;5051002;28;20971;-52
2023/12/30 05:38:25;;;;;;;0.30;0.20;;;;;;;10.52;100.00;100099.13;5038645;28;20505;-52
2023/12/30 05:40:51;;;;;;;0.30;0.20;;;;;;;10.68;99.81;100098.59;5051235;28;20456;-52
2023/12/30 05:43:18;;;;;;;0.30;0.20;;;;;;;10.45;99.53;100102.91;5050071;28;20910;-52
2023/12/30 05:45:44;;;;;;;0.30;0.20;;;;;;;10.40;99.76;100108.34;5050259;28;20455;-52
2023/12/30 05:48:13;;;;;;;0.30;0.20;;;;;;;10.34;100.00;100111.22;5039386;28;20534;-56
2023/12/30 05:50:40;;;;;;;0.30;0.20;;;;;;;10.32;99.49;100119.25;5038154;28;20966;-54
2023/12/30 05:53:06;;;;;;;0.30;0.20;;;;;;;10.33;99.45;100118.31;5039438;28;20486;-54
2023/12/30 05:55:33;;;;;;;0.30;0.20;;;;;;;10.48;99.38;100130.25;5049176;28;20528;-54
2023/12/30 05:57:59;;;;;;;0.30;0.20;;;;;;;10.51;98.99;100126.63;5050074;28;20533;-51
2023/12/30 06:00:26;;;;;;;0.30;0.20;;;;;;;10.44;98.54;100128.63;5050328;28;20504;-54
2023/12/30 06:02:52;;;;;;;0.30;0.20;;;;;;;10.50;97.81;100131.06;5050988;28;20541;-54
2023/12/30 06:05:19;;;;;;;0.30;0.20;;;;;;;10.42;98.22;100130.47;5047111;28;20512;-54
2023/12/30 06:07:46;;;;;;;0.30;0.20;;;;;;;10.18;98.66;100132.03;5044231;28;20532;-53
2023/12/30 06:10:13;;;;;;;0.30;0.20;;;;;;;10.14;98.64;100146.28;5038193;28;20505;-52
2023/12/30 06:12:40;;;;;;;0.30;0.20;;;;;;;10.27;99.03;100138.88;5046867;28;20486;-53
2023/12/30 06:15:06;;;;;;;0.30;0.20;;;;;;;10.23;99.49;100137.22;5053139;28;20534;-52
2023/12/30 06:17:33;;;;;;;0.30;0.20;;;;;;;10.08;99.52;100149.13;5055783;28;20497;-52
2023/12/30 06:20:00;;;;;;;0.30;0.20;;;;;;;10.09;99.59;100153.53;5047698;28;20450;-52
2023/12/30 06:22:27;;;;;;;0.30;0.20;;;;;;;10.09;99.73;100157.06;5054623;28;20801;-54
2023/12/30 06:24:53;;;;;;;0.30;0.20;;;;;;;10.32;98.53;100145.81;5041278;28;20470;-52
2023/12/30 06:27:20;;;;;;;0.30;0.20;;;;;;;10.31;98.28;100152.03;5054312;28;20447;-53
2023/12/30 06:29:47;;;;;;;0.30;0.20;;;;;;;10.43;97.75;100160.56;5051273;28;20451;-53
2023/12/30 06:32:13;;;;;;;0.30;0.20;;;;;;;10.21;98.56;100162.94;5044431;28;20545;-53
2023/12/30 06:34:40;;;;;;;0.30;0.20;;;;;;;10.23;98.05;100154.03;5054602;28;20477;-55
2023/12/30 06:37:07;;;;;;;0.30;0.20;;;;;;;10.22;98.49;100154.94;5044557;28;20495;-53
2023/12/30 06:39:34;;;;;;;0.30;0.20;;;;;;;9.98;98.51;100155.63;5049079;28;20458;-52
2023/12/30 06:42:00;;;;;;;0.30;0.20;;;;;;;10.26;98.08;100153.94;5047196;28;20512;-53
2023/12/30 06:44:27;;;;;;;0.30;0.20;;;;;;;10.00;98.77;100157.31;5043746;28;20452;-52
2023/12/30 06:46:54;;;;;;;0.30;0.20;;;;;;;9.84;99.04;100169.28;5052407;28;20479;-52
2023/12/30 06:49:20;;;;;;;0.30;0.20;;;;;;;9.66;99.48;100168.00;5054025;28;20482;-53
2023/12/30 06:51:47;;;;;;;0.30;0.20;;;;;;;9.36;100.00;100166.16;5054001;28;20863;-51
2023/12/30 06:54:14;;;;;;;0.30;0.20;;;;;;;9.43;100.00;100173.91;5048461;28;20557;-53
2023/12/30 06:56:40;;;;;;;0.30;0.20;;;;;;;9.38;100.00;100175.81;5051273;28;20488;-54
2023/12/30 06:59:07;;;;;;;0.30;0.20;;;;;;;9.27;100.00;100177.88;5044285;28;20459;-53
2023/12/30 07:01:37;;;;;;;0.30;0.20;;;;;;;9.04;100.00;100189.03;5053397;28;20463;-54
2023/12/30 07:04:03;;;;;;;0.30;0.20;;;;;;;8.95;100.00;100197.22;5054189;28;20479;-53
2023/12/30 07:06:30;;;;;;;0.30;0.20;;;;;;;8.70;100.00;100196.03;5043197;28;20459;-53
2023/12/30 07:08:56;;;;;;;0.30;0.20;;;;;;;8.60;100.00;100200.66;5054392;28;20447;-54
2023/12/30 07:11:23;;;;;;;0.30;0.20;;;;;;;8.64;100.00;100197.06;5055387;28;20963;-54
2023/12/30 07:13:49;;;;;;;0.30;0.20;;;;;;;8.58;100.00;100203.34;5042589;28;20536;-52
2023/12/30 07:16:16;;;;;;;0.30;0.20;;;;;;;8.61;100.00;100197.97;5056519;28;20453;-52
2023/12/30 07:18:42;;;;;;;0.30;0.20;;;;;;;8.61;100.00;100202.38;5051122;28;20463;-51
2023/12/30 07:21:09;;;;;;;0.30;0.20;;;;;;;8.56;100.00;100205.16;5047463;28;20459;-52
2023/12/30 07:23:35;;;;;;;0.30;0.20;;;;;;;8.49;100.00;100207.94;5050149;28;20503;-52
2023/12/30 07:26:02;;;;;;;0.30;0.20;;;;;;;8.51;100.00;100204.41;5047563;28;20447;-52
2023/12/30 07:28:29;;;;;;;0.30;0.20;;;;;;;8.62;100.00;100196.19;5049864;28;20447;-52
2023/12/30 07:30:56;;;;;;;0.30;0.20;;;;;;;8.65;100.00;100208.53;5038895;28;20436;-52
2023/12/30 07:33:23;;;;;;;0.30;0.20;;;;;;;8.75;100.00;100210.03;5047411;28;20983;-51
2023/12/30 07:35:49;;;;;;;0.30;0.20;;;;;;;8.66;100.00;100213.78;5043546;28;20453;-51
2023/12/30 07:38:19;;;;;;;0.30;0.20;;;;;;;8.70;100.00;100206.63;5044103;28;20880;-51
2023/12/30 07:40:45;;;;;;;0.30;0.20;;;;;;;8.75;100.00;100205.59;5044310;28;20479;-52
2023/12/30 07:43:12;;;;;;;0.30;0.20;;;;;;;8.83;100.00;100214.28;5045206;28;20535;-52
2023/12/30 07:45:38;;;;;;;0.30;0.20;;;;;;;8.76;100.00;100209.13;5044537;28;20443;-52
2023/12/30 07:48:05;;;;;;;0.30;0.20;;;;;;;8.90;100.00;100214.97;5043771;28;20436;-52
2023/12/30 07:50:31;;;;;;;0.30;0.20;;;;;;;8.96;100.00;100214.00;5043796;28;20439;-52
2023/12/30 07:52:58;;;;;;;0.30;0.20;;;;;;;8.97;100.00;100216.59;5042328;28;20471;-52
2023/12/30 07:55:24;;;;;;;0.30;0.20;;;;;;;9.11;100.00;100219.81;5043447;28;20444;-52
2023/12/30 07:57:51;;;;;;;0.30;0.20;;;;;;;9.10;100.00;100218.06;5044418;28;20511;-51
2023/12/30 08:00:18;;;;;;;0.30;0.20;;;;;;;9.43;100.00;100220.78;5047583;28;20451;-52
2023/12/30 08:02:45;;;;;;;0.30;0.20;;;;;;;9.52;100.00;100225.00;5042332;28;21286;-52
2023/12/30 08:05:11;;;;;;;0.30;0.20;;;;;;;9.62;100.00;100227.38;5043960;28;20459;-52
2023/12/30 08:07:37;;;;;;;0.30;0.20;;;;;;;9.86;100.00;100222.31;5044182;28;20452;-52
2023/12/30 08:10:05;;;;;;;0.30;0.20;;;;;;;9.78;100.00;100220.75;5043249;28;20450;-52
2023/12/30 08:12:31;;;;;;;0.30;0.20;;;;;;;9.78;100.00;100215.44;5043418;28;20455;-52
2023/12/30 08:14:58;;;;;;;0.30;0.20;;;;;;;9.93;100.00;100215.94;5043044;28;21026;-51
2023/12/30 08:17:25;;;;;;;0.30;0.20;;;;;;;10.01;100.00;100213.97;5044468;28;20570;-52
2023/12/30 08:19:51;;;;;;;0.30;0.20;;;;;;;10.07;100.00;100213.78;5038769;28;20440;-52
2023/12/30 08:22:18;;;;;;;0.30;0.20;;;;;;;10.14;100.00;100212.69;5052456;28;20533;-52
2023/12/30 08:24:45;;;;;;;0.30;0.20;;;;;;;10.09;100.00;100215.47;5047030;28;20498;-52
2023/12/30 08:27:11;;;;;;;0.30;0.20;;;;;;;10.14;100.00;100215.34;5046694;28;20446;-52
2023/12/30 08:29:38;;;;;;;0.30;0.20;;;;;;;10.13;100.00;100216.25;5049525;28;20528;-52
2023/12/30 08:32:06;;;;;;;0.30;0.20;;;;;;;10.07;100.00;100209.34;5051349;28;20563;-52
2023/12/30 08:34:33;;;;;;;0.30;0.20;;;;;;;10.18;100.00;100209.06;5051794;28;20632;-52
2023/12/30 08:37:00;;;;;;;0.30;0.20;;;;;;;10.16;100.00;100216.19;5044506;28;20487;-52
2023/12/30 08:39:26;;;;;;;0.30;0.20;;;;;;;10.27;100.00;100218.56;5051969;28;20440;-52
2023/12/30 08:41:53;;;;;;;0.30;0.20;;;;;;;10.22;100.00;100218.69;5044954;28;20451;-52
2023/12/30 08:44:19;;;;;;;0.30;0.20;;;;;;;10.28;100.00;100222.97;5047570;28;20540;-52
2023/12/30 08:46:46;;;;;;;0.30;0.20;;;;;;;10.26;100.00;100220.34;5052173;28;20451;-52
2023/12/30 08:49:12;;;;;;;0.30;0.20;;;;;;;10.42;100.00;100220.81;5048765;28;20946;-52
2023/12/30 08:51:39;;;;;;;0.30;0.20;;;;;;;10.50;100.00;100228.53;5041038;28;20442;-53
2023/12/30 08:54:05;;;;;;;0.30;0.20;;;;;;;10.45;100.00;100225.16;5051050;28;21046;-52
2023/12/30 08:56:33;;;;;;;0.30;0.20;;;;;;;10.48;100.00;100225.06;5041933;28;20513;-52
2023/12/30 08:59:00;;;;;;;0.30;0.20;;;;;;;10.49;99.85;100217.03;5048145;28;21087;-52
2023/12/30 09:01:27;;;;;;;0.30;0.20;;;;;;;10.56;99.77;100215.09;5048945;28;20546;-52
2023/12/30 09:03:54;;;;;;;0.30;0.20;;;;;;;10.45;100.00;100225.16;5042402;28;20482;-52
2023/12/30 09:06:21;;;;;;;0.30;0.20;;;;;;;10.56;99.85;100225.72;5050728;28;20483;-52
2023/12/30 09:08:48;;;;;;;0.30;0.20;;;;;;;10.46;100.00;100222.44;5045804;28;20454;-52
2023/12/30 09:11:22;;;;;;;0.30;0.20;;;;;;;10.54;100.00;100232.84;5041494;28;20550;-52
2023/12/30 09:13:50;;;;;;;0.30;0.20;;;;;;;10.71;99.78;100227.03;5049157;28;20881;-51
2023/12/30 09:16:16;;;;;;;0.30;0.20;;;;;;;10.74;99.27;100230.47;5043500;28;20454;-52
2023/12/30 09:18:43;;;;;;;0.30;0.20;;;;;;;10.81;99.12;100242.66;5042340;28;20478;-52
2023/12/30 09:21:10;;;;;;;0.30;0.20;;;;;;;10.75;99.07;100244.63;5051548;28;20482;-52
2023/12/30 09:23:37;;;;;;;0.30;0.20;;;;;;;10.87;99.59;100233.63;5049913;28;20481;-53
2023/12/30 09:26:04;;;;;;;0.30;0.20;;;;;;;10.84;99.25;100242.59;5051605;28;20538;-52
2023/12/30 09:28:30;;;;;;;0.30;0.20;;;;;;;10.89;98.23;100253.06;5051214;28;20456;-54
2023/12/30 09:30:57;;;;;;;0.30;0.20;;;;;;;11.04;98.36;100249.06;5051070;28;20451;-54
2023/12/30 09:33:24;;;;;;;0.30;0.20;;;;;;;11.04;98.52;100252.59;5048538;28;20463;-52
2023/12/30 09:35:54;;;;;;;0.30;0.20;;;;;;;10.87;97.90;100255.78;5040040;28;20809;-53
2023/12/30 09:38:24;;;;;;;0.30;0.20;;;;;;;11.07;98.48;100256.94;5045622;28;20574;-53
2023/12/30 09:40:53;;;;;;;0.30;0.20;;;;;;;11.11;98.10;100258.59;5051076;28;20450;-52
2023/12/30 09:43:23;;;;;;;0.30;0.20;;;;;;;11.22;97.48;100262.66;5042988;28;20510;-52
2023/12/30 09:45:52;;;;;;;0.30;0.20;;;;;;;11.23;97.49;100263.50;5044015;28;20559;-53
2023/12/30 09:48:26;;;;;;;0.30;0.20;;;;;;;11.15;97.35;100268.22;5043833;28;20442;-52
2023/12/30 09:50:55;;;;;;;0.30;0.20;;;;;;;11.18;96.85;100265.47;5044179;28;20513;-52
2023/12/30 09:53:22;;;;;;;0.30;0.20;;;;;;;11.31;96.25;100265.94;5038581;28;20491;-52
2023/12/30 09:55:50;;;;;;;0.30;0.20;;;;;;;11.30;96.03;100274.84;5045147;28;20471;-52
2023/12/30 09:58:18;;;;;;;0.30;0.20;;;;;;;11.21;96.80;100276.88;5046129;28;20502;-52
2023/12/30 10:00:45;;;;;;;0.30;0.20;;;;;;;11.24;96.36;100270.59;5051642;28;20459;-53
2023/12/30 10:03:13;;;;;;;0.30;0.20;;;;;;;11.25;95.98;100275.00;5056206;28;20830;-52
2023/12/30 10:05:40;;;;;;;0.30;0.20;;;;;;;11.45;95.82;100277.88;5054281;28;20454;-53
2023/12/30 10:08:07;;;;;;;0.30;0.20;;;;;;;11.60;94.99;100280.97;5054062;28;20474;-52
2023/12/30 10:10:44;;;;;;;0.30;0.20;;;;;;;11.52;94.63;100279.44;5041174;28;20460;-52
2023/12/30 10:13:13;;;;;;;0.30;0.20;;;;;;;11.72;93.97;100278.78;5053138;28;20473;-53
2023/12/30 10:15:41;;;;;;;0.30;0.20;;;;;;;11.80;93.62;100278.56;5047644;28;20689;-52
2023/12/30 10:18:08;;;;;;;0.30;0.20;;;;;;;12.00;92.79;100277.88;5039028;28;20487;-52
2023/12/30 10:20:40;;;;;;;0.30;0.20;;;;;;;12.06;92.23;100273.22;5052074;28;20455;-54
2023/12/30 10:23:07;;;;;;;0.30;0.20;;;;;;;12.05;92.16;100273.25;5038954;28;20482;-52
2023/12/30 10:25:34;;;;;;;0.30;0.20;;;;;;;11.96;92.40;100271.78;5052659;28;20496;-53
2023/12/30 10:28:01;;;;;;;0.30;0.20;;;;;;;12.09;92.62;100266.91;5050746;28;20525;-52
2023/12/30 10:30:30;;;;;;;0.30;0.20;;;;;;;12.04;92.32;100264.38;5043452;28;20458;-53
2023/12/30 10:33:14;;;;;;;0.30;0.20;;;;;;;12.03;91.84;100262.63;5054200;28;20460;-53
2023/12/30 10:35:44;;;;;;;0.30;0.20;;;;;;;12.16;91.18;100263.94;5043510;28;20486;-53
2023/12/30 10:38:13;;;;;;;0.30;0.20;;;;;;;12.16;91.00;100271.94;5037438;28;20678;-53
2023/12/30 10:40:40;;;;;;;0.30;0.20;;;;;;;12.04;91.23;100263.50;5053705;28;20989;-53
2023/12/30 10:43:07;;;;;;;0.30;0.20;;;;;;;11.84;91.19;100258.88;5046296;28;20462;-54
2023/12/30 10:45:34;;;;;;;0.30;0.20;;;;;;;11.98;91.18;100264.59;5054335;28;20451;-53
2023/12/30 10:48:01;;;;;;;0.30;0.20;;;;;;;12.13;91.08;100265.84;5042297;28;20530;-53
2023/12/30 10:50:28;;;;;;;0.30;0.20;;;;;;;12.05;91.02;100267.91;5041323;28;20448;-53
2023/12/30 10:53:35;;;;;;;0.30;0.20;;;;;;;12.07;91.57;100272.28;5052654;28;20458;-53
2023/12/30 10:56:03;;;;;;;0.30;0.20;;;;;;;12.10;90.59;100272.16;5036499;28;20459;-53
2023/12/30 10:58:36;;;;;;;0.30;0.20;;;;;;;12.18;91.67;100266.56;5048530;28;20928;-53
2023/12/30 11:01:04;;;;;;;0.30;0.20;;;;;;;11.90;91.85;100261.31;5048306;28;20541;-52
2023/12/30 11:03:33;;;;;;;0.30;0.20;;;;;;;12.10;91.37;100261.50;5043236;28;20471;-52
2023/12/30 11:06:03;;;;;;;0.30;0.20;;;;;;;12.35;90.23;100255.31;5041988;28;20481;-52
2023/12/30 11:08:30;;;;;;;0.30;0.20;;;;;;;12.28;90.95;100261.78;5053260;28;20537;-53
2023/12/30 11:11:04;;;;;;;0.30;0.20;;;;;;;12.28;90.04;100254.66;5047077;28;20545;-52
2023/12/30 11:13:35;;;;;;;0.30;0.20;;;;;;;12.32;89.25;100263.41;5041324;28;20490;-52
2023/12/30 11:16:18;;;;;;;0.30;0.20;;;;;;;12.25;89.91;100260.09;5037875;28;20455;-53
2023/12/30 11:18:55;;;;;;;0.30;0.20;;;;;;;12.19;89.34;100260.28;5053248;28;20457;-52
2023/12/30 11:21:35;;;;;;;0.30;0.20;;;;;;;12.37;88.50;100257.00;5053337;28;20450;-52
2023/12/30 11:24:04;;;;;;;0.30;0.20;;;;;;;12.32;89.32;100250.06;5047431;28;20445;-52
2023/12/30 11:26:31;;;;;;;0.30;0.20;;;;;;;12.41;88.55;100255.94;5046494;28;20534;-52